EW2112 Weather Reports


Display with metric or nautical units.
time (UTC)temp
F
wind
direction
speed
MPH
gust
MPH
rain 1hr
in
rain 24hr
in
rain mn
in
humidity
%
barometer
mb
20221003221557 59 332 1.0 4.0 0.00 0.00 0.00 74 1018.5
20221003220052 58 340 1.0 4.0 0.00 0.00 0.00 77 1018.7
20221003214551 56 336 1.0 5.0 0.00 0.00 0.00 79 1018.9
20221003213042 55 301 1.0 4.0 0.00 0.00 0.00 83 1019.0
20221003211549 53 303 0.0 3.0 0.00 0.00 0.00 86 1018.8
20221003210040 52 284 1.0 3.0 0.00 0.00 0.00 88 1018.8
20221003204533 51 322 1.0 4.0 0.00 0.00 0.00 91 1018.6
20221003203031 49 296 1.0 2.0 0.00 0.00 0.00 92 1018.6
20221003201533 48 296 0.0 1.0 0.00 0.00 0.00 91 1018.5
20221003200027 48 296 0.0 1.0 0.00 0.00 0.00 90 1018.2
20221003194528 48 296 0.0 0.0 0.00 0.00 0.00 89 1017.9
20221003193022 48 296 0.0 1.0 0.00 0.00 0.00 88 1017.7
20221003191539 49 296 0.0 2.0 0.00 0.00 0.00 88 1017.5
20221003190020 49 297 0.0 2.0 0.00 0.00 0.00 87 1017.4
20221003184515 49 297 2.0 4.0 0.00 0.00 0.00 87 1017.4
20221003183013 49 271 0.0 2.0 0.00 0.00 0.00 86 1017.2
20221003181512 50 268 0.0 2.0 0.00 0.00 0.00 84 1017.2
20221003180021 51 298 0.0 2.0 0.00 0.00 0.00 83 1017.1
20221003174509 52 327 0.0 2.0 0.00 0.00 0.00 81 1017.2
20221003173008 52 333 0.0 4.0 0.00 0.00 0.00 81 1016.9
20221003171512 52 333 2.0 4.0 0.00 0.00 0.00 81 1016.7
20221003170005 52 346 1.0 5.0 0.00 0.00 0.00 81 1016.7
20221003164505 51 355 2.0 4.0 0.00 0.00 0.00 84 1016.8
20221003163004 50 342 1.0 3.0 0.00 0.00 0.00 86 1016.7
20221003161611 50 342 0.0 0.0 0.00 0.00 0.00 85 1016.7
20221003160104 50 342 0.0 0.0 0.00 0.00 0.00 83 1016.8
20221003154552 51 342 0.0 0.0 0.00 0.00 0.00 82 1016.8
20221003153100 52 342 0.0 2.0 0.00 0.00 0.00 80 1016.8
20221003151545 52 340 2.0 4.0 0.00 0.00 0.00 81 1017.2
20221003150045 52 340 1.0 2.0 0.00 0.00 0.00 81 1017.3
20221003144545 52 340 0.0 2.0 0.00 0.00 0.00 80 1017.1
20221003143037 52 340 1.0 4.0 0.00 0.00 0.00 80 1017.3
20221003141537 53 340 0.0 2.0 0.00 0.00 0.00 78 1017.2
20221003140041 53 340 0.0 3.0 0.00 0.00 0.00 77 1017.1
20221003134534 54 338 1.0 3.0 0.00 0.00 0.00 76 1017.5
20221003133036 54 336 2.0 6.0 0.00 0.00 0.00 76 1017.5
20221003131535 54 350 0.0 3.0 0.00 0.00 0.00 74 1017.4
20221003130034 55 340 2.0 5.0 0.00 0.00 0.00 73 1017.5
20221003124531 55 355 0.0 5.0 0.00 0.00 0.00 72 1017.6
20221003123024 56 340 2.0 8.0 0.00 0.00 0.00 72 1017.4
20221003121522 56 318 3.0 5.0 0.00 0.00 0.00 70 1017.4
20221003120022 57 344 2.0 6.0 0.00 0.00 0.00 69 1017.5
20221003114524 57 343 4.0 8.0 0.00 0.00 0.00 68 1017.3
20221003113018 57 348 3.0 6.0 0.00 0.00 0.00 67 1017.5
20221003111515 58 20 4.0 9.0 0.00 0.00 0.00 67 1017.5
20221003110016 58 28 3.0 8.0 0.00 0.00 0.00 67 1017.5
20221003104512 58 28 3.0 11.0 0.00 0.00 0.00 66 1017.4
20221003103010 58 30 5.0 11.0 0.00 0.00 0.00 66 1017.5
20221003101507 58 55 3.0 11.0 0.00 0.00 0.00 66 1017.2
20221003100006 58 35 4.0 10.0 0.00 0.00 0.00 66 1017.2
20221003094509 58 31 3.0 10.0 0.00 0.00 0.00 65 1017.0
20221003093004 59 34 2.0 12.0 0.00 0.00 0.00 64 1016.9
20221003091504 59 44 1.0 10.0 0.00 0.00 0.00 63 1016.7
20221003090007 59 47 1.0 9.0 0.00 0.00 0.00 62 1016.6
20221003084505 59 42 3.0 6.0 0.00 0.00 0.00 61 1016.3
20221003083005 60 20 2.0 8.0 0.00 0.00 0.00 61 1016.3
20221003081502 61 62 1.0 7.0 0.00 0.00 0.00 60 1016.0
20221003080001 62 54 3.0 10.0 0.00 0.00 0.00 58 1015.8
20221003074501 63 49 0.0 10.0 0.00 0.00 0.00 57 1015.7
20221003073000 64 63 2.0 11.0 0.00 0.00 0.00 55 1015.5
20221003071605 64 45 1.0 12.0 0.00 0.00 0.00 54 1015.5
20221003070103 65 36 4.0 10.0 0.00 0.00 0.00 53 1015.4
20221003064559 67 20 4.0 10.0 0.00 0.00 0.00 50 1015.1
20221003063106 68 44 3.0 10.0 0.00 0.00 0.00 49 1014.9
20221003061600 68 9 3.0 9.0 0.00 0.00 0.00 49 1015.0
20221003060056 68 31 4.0 10.0 0.00 0.00 0.00 48 1015.0
20221003054559 69 11 3.0 10.0 0.00 0.00 0.00 46 1015.0
20221003053059 70 76 2.0 8.0 0.00 0.00 0.00 45 1015.0
20221003051553 69 70 2.0 6.0 0.00 0.00 0.00 46 1015.2
20221003050052 70 22 5.0 9.0 0.00 0.00 0.00 46 1015.3
20221003044550 69 65 2.0 8.0 0.00 0.00 0.00 48 1015.5
20221003043054 69 10 3.0 11.0 0.00 0.00 0.00 45 1015.8
20221003041545 71 144 3.0 6.0 0.00 0.00 0.00 43 1016.1
20221003040042 72 142 1.0 6.0 0.00 0.00 0.00 42 1016.2
20221003034540 73 116 2.0 7.0 0.00 0.00 0.00 39 1016.4
20221003033037 71 178 2.0 5.0 0.00 0.00 0.00 43 1016.5
20221003031534 71 292 1.0 3.0 0.00 0.00 0.00 41 1016.6
20221003030031 70 209 2.0 7.0 0.00 0.00 0.00 42 1016.9
20221003024535 70 146 2.0 6.0 0.00 0.00 0.00 47 1017.1
20221003023024 67 172 3.0 7.0 0.00 0.00 0.00 48 1017.3
20221003021523 66 192 4.0 8.0 0.00 0.00 0.00 48 1017.4
20221003020023 66 346 2.0 5.0 0.00 0.00 0.00 47 1017.5
20221003014522 67 15 1.0 5.0 0.00 0.00 0.00 50 1017.7
20221003013021 67 227 1.0 6.0 0.00 0.00 0.00 49 1017.8
20221003011519 67 286 2.0 8.0 0.00 0.00 0.00 51 1018.0
20221003010015 64 217 1.0 4.0 0.00 0.00 0.00 55 1018.5
20221003004514 63 304 2.0 6.0 0.00 0.00 0.00 59 1019.0
20221003003013 64 230 1.0 5.0 0.00 0.00 0.00 58 1019.2
20221003001517 63 292 1.0 8.0 0.00 0.00 0.00 61 1019.4
20221003000007 63 329 2.0 5.0 0.00 0.00 0.00 63 1019.4
20221002234503 62 190 1.0 5.0 0.00 0.00 0.00 66 1019.5
20221002233059 61 295 1.0 5.0 0.00 0.00 0.00 70 1019.6
20221002231554 60 321 1.0 3.0 0.00 0.00 0.00 72 1019.6
20221002230050 58 316 1.0 4.0 0.00 0.00 0.00 78 1019.7
20221002224546 57 291 3.0 5.0 0.00 0.00 0.00 81 1019.7
20221002223042 55 347 1.0 4.0 0.00 0.00 0.00 88 1019.7